• Join FlightAware (Why Join?)
  • Login
  • US Flag 
10:56PM EDT


 

Airport Tracker/Info


-or-


 

Live Flight TrackerFlight Track Log ✈ ASH2739 ✈ 10-May-2013 ✈ KPHX - KTUS

Flight Track Log - Related Links

Times and Time Zones

All times are in EDT time to prevent confusion due to time zone crossing. See the ASH2739 flight status page for this flight to view local times or setup timezone preferences in your user account.

Time Position Orientation Groundspeed Altitude Reporting Facility
EDT Latitude Longitude Course Direction KTS MPH feet Rate Location/Type
12:13PM 33.4333 -111.9667 164° South 168 193 2,700  Level Phoenix TRACON
12:14PM 33.4333 -111.8833 90° East 237 273 4,900 2,220 Climbing Phoenix TRACON
12:15PM 33.4300 -111.8472 96° East 240 276 6,400 2,940 Climbing Albuquerque Center
12:16PM 33.0966 -111.9450 168° South  Level FlightAware Approximate
12:16PM 33.3697 -111.8022 148° Southeast 282 325 9,600  Level Albuquerque Center
12:17PM 33.0137 -111.9212 164° South  Level FlightAware Approximate
12:17PM 33.2847 -111.8117 185° South 302 348 12,000  Level Albuquerque Center
12:18PM 32.8939 -111.9035 164° South  Level FlightAware Approximate
12:18PM 33.1933 -111.8353 192° South 328 377 14,800  Level Albuquerque Center
12:19PM 33.0969 -111.8581 191° South 345 397 16,900 1,020 Climbing Albuquerque Center
12:20PM 32.9669 -111.8897 192° South 389 448 17,000  Climbing Albuquerque Center
12:21PM 32.8606 -111.8644 169° South 410 472 17,000 -420 Level Albuquerque Center
12:22PM 32.7700 -111.7872 144° Southeast 404 465 16,200 -1,020 Descending Albuquerque Center
12:23PM 32.6797 -111.7067 143° Southeast 407 468 15,000 -1,320 Descending Albuquerque Center
12:23PM 32.6161 -111.6528 144° Southeast 395 455 14,100 -1,200 Descending Albuquerque Center
12:24PM 32.5944 -111.6297 138° Southeast 394 453 13,800 -1,140 Descending Albuquerque Center
12:25PM 32.5092 -111.5394 138° Southeast 374 430 12,500 -1,260 Descending Albuquerque Center
12:26PM 32.4475 -111.4303 124° Southeast 369 425 11,200 -900 Descending Albuquerque Center
12:27PM 32.3989 -111.3544 127° Southeast 350 403 10,800 -780 Descending Albuquerque Center
12:28PM 32.3567 -111.2797 124° Southeast 297 342 9,900 -1,020 Descending Albuquerque Center
12:28PM 32.3472 -111.2611 121° Southeast 297 342 9,600 -1,020 Descending Albuquerque Center
12:29PM 32.3056 -111.1928 126° Southeast 266 306 8,700 -1,080 Descending Albuquerque Center
12:30PM 32.2675 -111.1214 122° Southeast 257 296 7,400 -1,380 Descending Albuquerque Center
12:31PM 32.2311 -111.0742 132° Southeast 221 254 6,100 -1,740 Descending Albuquerque Center